createdAt,value
2023-01-05T00:01:06.124Z,28.35
2023-01-05T00:04:08.424Z,32.60
2023-01-05T00:07:10.599Z,30.40
2023-01-05T00:10:33.147Z,33.13
2023-01-05T00:13:54.099Z,30.33
2023-01-05T00:17:15.287Z,31.15
2023-01-05T00:20:40.807Z,28.40
2023-01-05T00:23:42.962Z,29.75
2023-01-05T00:26:45.052Z,30.17
2023-01-05T00:29:47.197Z,27.95
2023-01-05T00:32:50.071Z,34.75
2023-01-05T00:35:52.169Z,30.10
2023-01-05T00:38:56.476Z,29.45
2023-01-05T00:41:58.672Z,32.53
2023-01-05T00:45:00.893Z,31.60
2023-01-05T00:48:03.163Z,33.75
2023-01-05T00:51:05.486Z,30.98
2023-01-05T00:54:07.942Z,33.58
2023-01-05T00:57:14.447Z,37.05
2023-01-05T01:00:19.683Z,31.40
2023-01-05T01:03:22.243Z,29.67
2023-01-05T01:06:24.816Z,34.72
2023-01-05T01:09:27.107Z,34.17
2023-01-05T01:12:29.388Z,35.85
2023-01-05T01:15:32.535Z,33.58
2023-01-05T01:18:35.173Z,33.63
2023-01-05T01:21:37.388Z,35.40
2023-01-05T01:24:39.666Z,33.60
2023-01-05T01:27:41.874Z,34.72
2023-01-05T01:30:44.066Z,34.08
2023-01-05T01:33:46.290Z,32.75
2023-01-05T01:36:48.770Z,32.88
2023-01-05T01:39:54.859Z,35.88
2023-01-05T01:42:57.091Z,33.72
2023-01-05T01:45:59.272Z,34.75
2023-01-05T01:49:05.898Z,34.15
2023-01-05T01:52:08.398Z,36.92
2023-01-05T01:55:11.422Z,38.35
2023-01-05T01:58:17.380Z,34.15
2023-01-05T02:01:20.113Z,36.58
2023-01-05T02:04:24.224Z,34.05
2023-01-05T02:07:28.516Z,35.13
2023-01-05T02:10:53.566Z,33.53
2023-01-05T02:14:07.850Z,37.53
2023-01-05T02:17:23.526Z,36.72
2023-01-05T02:20:29.263Z,35.63
2023-01-05T02:23:58.038Z,34.95
2023-01-05T02:27:25.394Z,37.70
2023-01-05T02:30:54.373Z,35.80
2023-01-05T02:34:34.057Z,37.67
2023-01-05T02:38:01.747Z,32.92
2023-01-05T02:41:18.525Z,36.22
2023-01-05T02:44:21.367Z,36.90
2023-01-05T02:47:28.198Z,35.17
2023-01-05T02:50:38.228Z,37.42
2023-01-05T02:54:10.655Z,35.88
2023-01-05T02:57:43.282Z,34.42
2023-01-05T03:00:52.110Z,36.20
2023-01-05T03:04:09.489Z,37.47
2023-01-05T03:07:18.292Z,37.90
2023-01-05T03:10:41.435Z,36.47
2023-01-05T03:13:47.674Z,39.42
2023-01-05T03:16:56.443Z,40.42
2023-01-05T03:20:01.660Z,37.55
2023-01-05T03:23:28.299Z,36.33
2023-01-05T03:26:49.188Z,35.22
2023-01-05T03:30:14.868Z,35.47
2023-01-05T03:34:05.459Z,36.80
2023-01-05T03:37:22.144Z,42.53
2023-01-05T03:40:31.187Z,40.92
2023-01-05T03:43:36.488Z,40.07
2023-01-05T03:46:43.212Z,41.25
2023-01-05T03:49:45.636Z,38.53
2023-01-05T03:52:48.683Z,40.05
2023-01-05T03:55:51.043Z,38.50
2023-01-05T03:58:53.643Z,40.15
2023-01-05T04:01:55.913Z,40.83
2023-01-05T04:04:58.757Z,35.80
2023-01-05T04:08:01.620Z,38.10
2023-01-05T04:11:19.285Z,38.35
2023-01-05T04:14:27.029Z,36.13
2023-01-05T04:17:29.530Z,39.40
2023-01-05T04:20:33.052Z,41.67
2023-01-05T04:23:36.193Z,41.65
2023-01-05T04:26:39.636Z,36.13
2023-01-05T04:29:41.988Z,38.10
2023-01-05T04:32:44.309Z,31.48
2023-01-05T04:35:50.295Z,40.53
2023-01-05T04:38:53.751Z,43.83
2023-01-05T04:41:56.563Z,41.55
2023-01-05T04:44:58.880Z,40.08
2023-01-05T04:48:01.205Z,37.13
2023-01-05T04:51:03.401Z,42.25
2023-01-05T04:54:09.426Z,36.83
2023-01-05T04:57:11.630Z,40.63
2023-01-05T05:00:15.594Z,43.00
2023-01-05T05:03:18.847Z,38.58
2023-01-05T05:06:22.512Z,37.00
2023-01-05T05:09:26.077Z,34.67
2023-01-05T05:12:29.445Z,41.47
2023-01-05T05:15:31.694Z,42.95
2023-01-05T05:18:34.910Z,43.03
2023-01-05T05:21:38.598Z,46.50
2023-01-05T05:24:40.872Z,43.00
2023-01-05T05:27:44.243Z,42.97
2023-01-05T05:30:48.229Z,45.20
2023-01-05T05:33:50.634Z,45.97
2023-01-05T05:36:52.862Z,42.10
2023-01-05T05:39:55.111Z,52.42
2023-01-05T05:42:57.252Z,47.70
2023-01-05T05:45:59.430Z,43.20
2023-01-05T05:49:01.762Z,45.92
2023-01-05T05:52:04.164Z,43.65
2023-01-05T05:55:07.157Z,47.58
2023-01-05T05:58:09.475Z,43.65
2023-01-05T06:01:12.825Z,46.10
2023-01-05T06:04:15.020Z,46.05
2023-01-05T06:07:17.290Z,48.03
2023-01-05T06:10:19.738Z,50.53
2023-01-05T06:13:22.707Z,50.95
2023-01-05T06:16:24.902Z,49.75
2023-01-05T06:19:27.155Z,46.25
2023-01-05T06:22:29.359Z,50.15
2023-01-05T06:25:31.708Z,49.60
2023-01-05T06:28:33.893Z,52.03
2023-01-05T06:31:36.023Z,49.97
2023-01-05T06:34:38.218Z,52.97
2023-01-05T06:37:40.612Z,54.15
2023-01-05T06:40:44.787Z,56.88
2023-01-05T06:43:46.970Z,50.03
2023-01-05T06:46:49.242Z,51.80
2023-01-05T06:49:51.465Z,53.53
2023-01-05T06:52:53.668Z,57.55
2023-01-05T06:55:55.903Z,53.50
2023-01-05T06:58:57.985Z,60.30
2023-01-05T07:02:00.626Z,48.75
2023-01-05T07:05:02.948Z,57.53
2023-01-05T07:08:05.413Z,58.08
2023-01-05T07:11:07.576Z,56.50
2023-01-05T07:14:09.686Z,54.15
2023-01-05T07:17:14.773Z,56.13
2023-01-05T07:20:17.139Z,57.17
2023-01-05T07:23:20.440Z,55.97
2023-01-05T07:26:22.642Z,56.30
2023-01-05T07:29:24.743Z,61.05
2023-01-05T07:32:26.931Z,63.10
2023-01-05T07:35:29.365Z,59.78
2023-01-05T07:38:32.796Z,58.45
2023-01-05T07:41:35.199Z,61.08
2023-01-05T07:44:38.043Z,60.05
2023-01-05T07:47:40.371Z,69.05
2023-01-05T07:50:42.559Z,68.68
2023-01-05T07:53:44.901Z,65.05
2023-01-05T07:56:47.381Z,64.70
2023-01-05T07:59:49.499Z,64.15
2023-01-05T08:02:51.821Z,64.55
2023-01-05T08:05:54.010Z,64.07
2023-01-05T08:08:57.301Z,66.88
2023-01-05T08:11:59.569Z,63.72
2023-01-05T08:15:01.812Z,63.67
2023-01-05T08:18:04.326Z,65.88
2023-01-05T08:21:08.738Z,64.00
2023-01-05T08:24:10.996Z,65.32
2023-01-05T08:27:13.247Z,59.72
2023-01-05T08:30:15.929Z,59.38
2023-01-05T08:33:18.101Z,63.97
2023-01-05T08:36:20.716Z,50.53
2023-01-05T08:39:22.900Z,63.10
2023-01-05T08:42:25.106Z,56.03
2023-01-05T08:45:31.542Z,59.42
2023-01-05T08:48:33.876Z,55.75
2023-01-05T08:51:36.507Z,56.80
2023-01-05T08:54:38.603Z,52.33
2023-01-05T08:57:40.976Z,54.03
2023-01-05T09:00:43.329Z,50.90
2023-01-05T09:03:46.015Z,57.47
2023-01-05T09:06:48.372Z,51.75
2023-01-05T09:09:50.578Z,49.90
2023-01-05T09:12:52.762Z,50.65
2023-01-05T09:15:54.918Z,46.75
2023-01-05T09:18:59.346Z,55.40
2023-01-05T09:22:01.503Z,55.67
2023-01-05T09:25:04.593Z,56.17
2023-01-05T09:28:06.896Z,50.03
2023-01-05T09:31:13.611Z,44.85
2023-01-05T09:34:16.624Z,42.58
2023-01-05T09:37:18.844Z,48.03
2023-01-05T09:40:21.543Z,43.25
2023-01-05T09:43:35.426Z,44.33
2023-01-05T09:46:40.949Z,42.92
2023-01-05T09:49:43.491Z,47.92
2023-01-05T09:52:46.180Z,43.25
2023-01-05T09:55:49.411Z,42.80
2023-01-05T09:58:53.091Z,46.08
2023-01-05T10:01:59.389Z,43.95
2023-01-05T10:05:05.426Z,45.15
2023-01-05T10:08:16.723Z,39.08
2023-01-05T10:11:43.316Z,40.47
2023-01-05T10:14:53.088Z,47.35
2023-01-05T10:17:55.693Z,44.78
2023-01-05T10:21:13.182Z,37.65
2023-01-05T10:24:32.104Z,37.17
2023-01-05T10:27:47.993Z,36.53
2023-01-05T10:31:00.100Z,33.78
2023-01-05T10:34:21.727Z,35.88
2023-01-05T10:37:45.487Z,33.60
2023-01-05T10:40:56.191Z,34.30
2023-01-05T10:44:13.754Z,36.72
2023-01-05T10:47:16.863Z,41.35
2023-01-05T10:50:36.885Z,47.60
2023-01-05T10:53:43.232Z,43.80
2023-01-05T10:56:46.824Z,46.72
2023-01-05T10:59:57.421Z,48.35
2023-01-05T11:02:59.658Z,49.22
2023-01-05T11:06:02.291Z,44.78
2023-01-05T11:09:22.706Z,52.08
2023-01-05T11:12:25.942Z,49.92
2023-01-05T11:15:31.134Z,50.30
2023-01-05T11:18:55.131Z,45.55
2023-01-05T11:22:01.957Z,51.53
2023-01-05T11:25:28.075Z,58.38
2023-01-05T11:28:30.649Z,51.28
2023-01-05T11:31:45.405Z,55.10
2023-01-05T11:34:51.853Z,46.42
2023-01-05T11:37:54.156Z,48.53
2023-01-05T11:40:57.849Z,46.95
2023-01-05T11:44:03.344Z,44.90
2023-01-05T11:47:06.347Z,47.75
2023-01-05T11:50:14.830Z,42.03
2023-01-05T11:53:38.314Z,46.28
2023-01-05T11:56:40.588Z,46.47
2023-01-05T11:59:44.400Z,42.53
2023-01-05T12:03:24.548Z,44.60
2023-01-05T12:06:44.642Z,53.17
2023-01-05T12:10:12.854Z,53.28
2023-01-05T12:13:38.600Z,54.50
2023-01-05T12:16:49.691Z,51.75
2023-01-05T12:19:57.860Z,48.70
2023-01-05T12:23:00.133Z,47.10
2023-01-05T12:26:23.432Z,49.22
2023-01-05T12:31:16.986Z,44.85
2023-01-05T12:37:24.808Z,40.85
2023-01-05T12:40:42.193Z,39.75
2023-01-05T12:44:03.370Z,35.45
2023-01-05T12:47:08.357Z,36.50
2023-01-05T12:50:44.260Z,33.10
2023-01-05T12:53:52.559Z,33.00
2023-01-05T12:57:03.888Z,34.03
2023-01-05T13:00:14.411Z,30.27
2023-01-05T13:03:34.280Z,33.35
2023-01-05T13:06:41.904Z,32.38
2023-01-05T13:09:46.483Z,28.50
2023-01-05T13:12:55.701Z,35.85
2023-01-05T13:16:17.458Z,30.10
2023-01-05T13:19:48.391Z,29.40
2023-01-05T13:22:55.457Z,32.10
2023-01-05T13:26:05.534Z,30.13
2023-01-05T13:29:27.574Z,28.98
2023-01-05T13:32:57.103Z,29.90
2023-01-05T13:36:05.022Z,28.92
2023-01-05T13:39:19.361Z,27.48
2023-01-05T13:42:49.868Z,28.02
2023-01-05T13:46:30.703Z,28.40
2023-01-05T13:49:41.966Z,28.73
2023-01-05T13:53:05.200Z,34.25
2023-01-05T13:56:28.893Z,29.92
2023-01-05T13:59:44.479Z,35.72
2023-01-05T14:03:00.596Z,39.17
2023-01-05T14:06:08.844Z,43.08
2023-01-05T14:09:34.698Z,35.67
2023-01-05T14:12:44.413Z,32.78
2023-01-05T14:15:46.678Z,34.53
2023-01-05T14:18:49.896Z,32.97
2023-01-05T14:21:54.111Z,35.97
2023-01-05T14:24:56.270Z,37.05
2023-01-05T14:28:29.363Z,35.25
2023-01-05T14:31:37.265Z,39.38
2023-01-05T14:34:51.033Z,35.17
2023-01-05T14:38:06.955Z,39.03
2023-01-05T14:41:16.282Z,36.13
2023-01-05T14:44:21.931Z,34.63
2023-01-05T14:47:40.860Z,30.98
2023-01-05T14:50:43.656Z,33.33
2023-01-05T14:53:48.518Z,37.30
2023-01-05T14:57:22.368Z,33.67
2023-01-05T15:00:53.187Z,35.65
2023-01-05T15:04:22.534Z,33.00
2023-01-05T15:08:06.523Z,34.97
2023-01-05T15:11:08.870Z,35.85
2023-01-05T15:14:36.174Z,37.30
2023-01-05T15:17:59.559Z,38.58
2023-01-05T15:21:07.890Z,30.95
2023-01-05T15:24:42.870Z,36.08
2023-01-05T15:27:48.645Z,35.33
2023-01-05T15:30:57.310Z,37.67
2023-01-05T15:34:07.527Z,33.08
2023-01-05T15:37:34.315Z,35.88
2023-01-05T15:40:36.547Z,32.70
2023-01-05T15:43:41.277Z,34.47
2023-01-05T15:46:43.491Z,36.65
2023-01-05T15:49:46.604Z,33.08
2023-01-05T15:52:57.485Z,36.85
2023-01-05T15:56:00.578Z,33.08
2023-01-05T15:59:13.147Z,31.75
2023-01-05T16:02:27.673Z,36.47
2023-01-05T16:05:35.799Z,35.97
2023-01-05T16:08:44.437Z,31.58
2023-01-05T16:11:49.578Z,29.38
2023-01-05T16:15:04.970Z,34.83
2023-01-05T16:18:11.924Z,27.30
2023-01-05T16:21:39.398Z,33.78
2023-01-05T16:25:00.349Z,36.22
2023-01-05T16:28:04.601Z,36.05
2023-01-05T16:31:29.179Z,39.85
2023-01-05T16:34:32.920Z,40.47
2023-01-05T16:37:35.060Z,35.75
2023-01-05T16:40:45.921Z,39.63
2023-01-05T16:43:56.974Z,40.03
2023-01-05T16:47:07.891Z,35.67
2023-01-05T16:50:19.481Z,43.13
2023-01-05T16:53:24.499Z,36.45
2023-01-05T16:56:32.716Z,40.10
2023-01-05T16:59:42.516Z,35.00
2023-01-05T17:02:46.256Z,35.47
2023-01-05T17:05:52.536Z,36.42
2023-01-05T17:08:59.010Z,35.38
2023-01-05T17:12:01.130Z,34.70
2023-01-05T17:15:06.391Z,37.55
2023-01-05T17:18:28.789Z,38.75
2023-01-05T17:21:33.002Z,41.17
2023-01-05T17:24:35.804Z,34.03
2023-01-05T17:27:37.983Z,39.42
2023-01-05T17:30:40.255Z,37.42
2023-01-05T17:33:42.463Z,40.88
2023-01-05T17:36:46.341Z,37.78
2023-01-05T17:39:48.500Z,33.47
2023-01-05T17:42:51.323Z,35.88
2023-01-05T17:45:53.546Z,33.25
2023-01-05T17:48:56.791Z,35.65
2023-01-05T17:51:58.894Z,31.23
2023-01-05T17:55:01.022Z,39.50
2023-01-05T17:58:03.771Z,36.67
2023-01-05T18:01:06.778Z,36.28
2023-01-05T18:04:09.034Z,34.00
2023-01-05T18:07:11.303Z,37.65
2023-01-05T18:10:17.288Z,34.00
2023-01-05T18:13:22.500Z,34.97
2023-01-05T18:16:26.390Z,34.78
2023-01-05T18:19:31.483Z,34.05
2023-01-05T18:22:34.826Z,35.80
2023-01-05T18:25:39.393Z,36.38
2023-01-05T18:28:41.670Z,37.75
2023-01-05T18:31:43.915Z,37.70
2023-01-05T18:34:46.108Z,39.17
2023-01-05T18:37:48.323Z,33.13
2023-01-05T18:40:50.618Z,33.83
2023-01-05T18:43:52.771Z,33.80
2023-01-05T18:46:54.918Z,32.78
2023-01-05T18:49:59.012Z,34.75
2023-01-05T18:53:01.171Z,31.15
2023-01-05T18:56:08.117Z,33.88
2023-01-05T18:59:12.328Z,35.95
2023-01-05T19:02:16.074Z,34.45
2023-01-05T19:05:18.204Z,37.50
2023-01-05T19:08:20.332Z,42.47
2023-01-05T19:11:25.383Z,36.55
2023-01-05T19:14:27.946Z,39.92
2023-01-05T19:17:33.690Z,37.28
2023-01-05T19:20:35.937Z,35.05
2023-01-05T19:23:38.094Z,40.35
2023-01-05T19:26:40.388Z,40.65
2023-01-05T19:29:42.758Z,35.15
2023-01-05T19:32:44.993Z,38.85
2023-01-05T19:35:47.126Z,36.35
2023-01-05T19:38:49.384Z,32.17
2023-01-05T19:41:51.872Z,32.40
2023-01-05T19:44:54.029Z,34.05
2023-01-05T19:47:56.248Z,37.75
2023-01-05T19:51:00.096Z,38.95
2023-01-05T19:54:04.254Z,38.22
2023-01-05T19:57:06.390Z,40.13
2023-01-05T20:00:09.303Z,39.50
2023-01-05T20:03:15.314Z,32.97
2023-01-05T20:06:23.448Z,36.80
2023-01-05T20:09:25.954Z,36.90
2023-01-05T20:12:28.090Z,37.08
2023-01-05T20:15:30.193Z,41.72
2023-01-05T20:18:32.975Z,39.88
2023-01-05T20:21:35.330Z,39.92
2023-01-05T20:24:37.476Z,34.25
2023-01-05T20:27:39.949Z,41.22
2023-01-05T20:30:42.187Z,40.78
2023-01-05T20:33:44.276Z,45.70
2023-01-05T20:36:47.165Z,36.40
2023-01-05T20:39:49.662Z,42.28
2023-01-05T20:42:51.725Z,40.35
2023-01-05T20:45:53.828Z,37.08
2023-01-05T20:48:57.101Z,40.05
2023-01-05T20:51:59.413Z,40.80
2023-01-05T20:55:01.493Z,41.25
2023-01-05T20:58:03.654Z,37.92
2023-01-05T21:01:10.518Z,40.00
2023-01-05T21:04:14.351Z,42.38
2023-01-05T21:07:16.481Z,42.63
2023-01-05T21:10:19.847Z,38.58
2023-01-05T21:13:31.519Z,33.83
2023-01-05T21:16:43.964Z,43.53
2023-01-05T21:19:46.341Z,39.95
2023-01-05T21:22:48.708Z,43.72
2023-01-05T21:26:05.750Z,38.38
2023-01-05T21:29:11.984Z,42.25
2023-01-05T21:32:14.212Z,41.13
2023-01-05T21:35:16.461Z,40.90
2023-01-05T21:38:18.521Z,41.28
2023-01-05T21:41:41.455Z,42.00
2023-01-05T21:44:43.684Z,40.47
2023-01-05T21:47:54.566Z,42.70
2023-01-05T21:51:16.235Z,42.90
2023-01-05T21:54:37.374Z,40.85
2023-01-05T21:57:39.517Z,38.92
2023-01-05T22:00:41.666Z,42.00
2023-01-05T22:03:43.828Z,38.03
2023-01-05T22:06:45.987Z,41.90
2023-01-05T22:09:48.130Z,37.38
2023-01-05T22:12:50.243Z,43.63
2023-01-05T22:15:54.213Z,38.95
2023-01-05T22:18:56.530Z,36.75
2023-01-05T22:21:58.666Z,36.20
2023-01-05T22:25:00.929Z,39.55
2023-01-05T22:28:03.148Z,39.63
2023-01-05T22:31:20.347Z,38.80
2023-01-05T22:34:22.513Z,42.45
2023-01-05T22:37:24.607Z,40.40
2023-01-05T22:40:26.786Z,40.65
2023-01-05T22:43:29.356Z,41.20
2023-01-05T22:46:31.924Z,37.83
2023-01-05T22:49:34.036Z,36.85
2023-01-05T22:52:36.177Z,37.60
2023-01-05T22:55:38.302Z,41.80
2023-01-05T22:58:41.075Z,41.92
2023-01-05T23:01:45.192Z,41.28
2023-01-05T23:04:47.340Z,41.20
2023-01-05T23:07:49.459Z,44.35
2023-01-05T23:10:57.985Z,43.22
2023-01-05T23:14:02.642Z,36.85
2023-01-05T23:17:04.827Z,35.03
2023-01-05T23:20:07.695Z,43.53
2023-01-05T23:23:10.027Z,39.22
2023-01-05T23:26:14.440Z,42.40
2023-01-05T23:29:16.558Z,41.67
2023-01-05T23:32:18.685Z,40.38
2023-01-05T23:35:20.940Z,40.78
2023-01-05T23:38:25.735Z,41.75
2023-01-05T23:41:27.894Z,42.85
2023-01-05T23:44:30.538Z,45.17
2023-01-05T23:47:32.658Z,42.47
2023-01-05T23:50:35.582Z,39.42
2023-01-05T23:53:37.722Z,44.25
2023-01-05T23:56:39.830Z,39.28
2023-01-05T23:59:41.988Z,42.70
